createdAt,value
2022-11-27T00:01:52.163Z,0.16
2022-11-27T00:04:19.663Z,0.08
2022-11-27T00:06:49.627Z,0.14
2022-11-27T00:09:17.021Z,0.09
2022-11-27T00:11:52.561Z,0.10
2022-11-27T00:14:19.890Z,0.09
2022-11-27T00:16:51.584Z,0.07
2022-11-27T00:19:18.822Z,0.11
2022-11-27T00:21:48.634Z,0.03
2022-11-27T00:24:15.782Z,0.02
2022-11-27T00:26:42.832Z,-0.02
2022-11-27T00:29:11.275Z,0.06
2022-11-27T00:31:38.489Z,0.12
2022-11-27T00:34:10.547Z,0.02
2022-11-27T00:36:38.315Z,0.08
2022-11-27T00:39:08.154Z,0.02
2022-11-27T00:41:35.350Z,0.08
2022-11-27T00:44:02.487Z,0.06
2022-11-27T00:46:34.650Z,0.07
2022-11-27T00:49:04.789Z,0.04
2022-11-27T00:51:32.023Z,0.02
2022-11-27T00:53:59.341Z,-0.02
2022-11-27T00:56:31.356Z,-0.24
2022-11-27T00:58:58.633Z,0.03
2022-11-27T01:01:32.452Z,-0.01
2022-11-27T01:04:00.976Z,0.02
2022-11-27T01:06:29.686Z,-0.04
2022-11-27T01:08:57.266Z,-0.06
2022-11-27T01:11:27.493Z,-0.05
2022-11-27T01:13:57.098Z,-0.08
2022-11-27T01:16:26.652Z,-0.10
2022-11-27T01:18:56.351Z,-0.22
2022-11-27T01:21:24.868Z,-0.15
2022-11-27T01:23:52.095Z,-0.06
2022-11-27T01:26:19.793Z,-0.11
2022-11-27T01:28:47.235Z,-0.17
2022-11-27T01:31:17.824Z,-0.13
2022-11-27T01:33:46.582Z,-0.17
2022-11-27T01:36:15.607Z,-0.15
2022-11-27T01:38:42.661Z,-0.13
2022-11-27T01:41:22.197Z,-0.11
2022-11-27T01:44:04.950Z,-0.08
2022-11-27T01:46:43.049Z,-0.10
2022-11-27T01:49:10.144Z,-0.06
2022-11-27T01:51:45.272Z,-0.18
2022-11-27T01:54:13.363Z,-0.06
2022-11-27T01:56:42.004Z,-0.03
2022-11-27T01:59:09.569Z,-0.07
2022-11-27T02:01:37.066Z,-0.14
2022-11-27T02:04:04.324Z,-0.09
2022-11-27T02:06:35.145Z,-0.13
2022-11-27T02:09:02.074Z,-0.25
2022-11-27T02:11:46.799Z,-0.18
2022-11-27T02:14:27.594Z,-0.25
2022-11-27T02:16:58.473Z,-0.28
2022-11-27T02:19:31.129Z,-0.31
2022-11-27T02:22:10.709Z,-0.39
2022-11-27T02:24:55.754Z,-0.27
2022-11-27T02:28:14.760Z,-0.22
2022-11-27T02:30:51.177Z,-0.22
2022-11-27T02:33:21.077Z,-0.19
2022-11-27T02:35:58.740Z,-0.11
2022-11-27T02:38:30.497Z,-0.14
2022-11-27T02:41:07.744Z,-0.48
2022-11-27T02:43:42.510Z,-0.22
2022-11-27T02:46:11.197Z,-0.19
2022-11-27T02:48:42.422Z,-0.18
2022-11-27T02:51:11.342Z,-0.16
2022-11-27T02:53:53.638Z,-0.14
2022-11-27T02:56:25.406Z,-0.16
2022-11-27T02:58:56.626Z,-0.23
2022-11-27T03:01:31.340Z,-0.16
2022-11-27T03:04:02.901Z,-0.11
2022-11-27T03:06:43.087Z,-0.13
2022-11-27T03:09:13.431Z,-0.06
2022-11-27T03:11:41.167Z,-0.11
2022-11-27T03:14:09.637Z,-0.12
2022-11-27T03:16:48.595Z,-0.04
2022-11-27T03:19:21.532Z,0.06
2022-11-27T03:21:55.252Z,0.08
2022-11-27T03:24:22.504Z,0.09
2022-11-27T03:26:49.738Z,0.06
2022-11-27T03:29:28.579Z,0.16
2022-11-27T03:31:57.491Z,0.14
2022-11-27T03:34:24.510Z,0.18
2022-11-27T03:36:51.639Z,0.24
2022-11-27T03:39:19.954Z,0.27
2022-11-27T03:41:49.867Z,0.23
2022-11-27T03:44:28.781Z,0.23
2022-11-27T03:47:14.375Z,0.28
2022-11-27T03:50:06.282Z,0.33
2022-11-27T03:52:43.512Z,0.29
2022-11-27T03:55:59.342Z,0.34
2022-11-27T03:58:55.619Z,0.36
2022-11-27T04:01:26.607Z,0.38
2022-11-27T04:03:53.840Z,0.48
2022-11-27T04:06:20.941Z,0.45
2022-11-27T04:08:48.307Z,0.56
2022-11-27T04:11:15.681Z,0.57
2022-11-27T04:13:46.481Z,0.55
2022-11-27T04:16:14.622Z,0.58
2022-11-27T04:18:48.564Z,0.57
2022-11-27T04:21:17.126Z,0.56
2022-11-27T04:23:46.252Z,0.56
2022-11-27T04:26:13.308Z,0.52
2022-11-27T04:28:40.483Z,0.69
2022-11-27T04:31:07.660Z,0.65
2022-11-27T04:33:34.872Z,0.57
2022-11-27T04:36:01.943Z,0.60
2022-11-27T04:38:29.026Z,0.63
2022-11-27T04:40:56.104Z,0.77
2022-11-27T04:43:23.214Z,0.74
2022-11-27T04:45:50.368Z,0.81
2022-11-27T04:48:17.461Z,0.67
2022-11-27T04:50:47.869Z,0.82
2022-11-27T04:53:16.207Z,0.92
2022-11-27T04:55:43.285Z,0.83
2022-11-27T04:58:10.458Z,0.93
2022-11-27T05:00:37.746Z,0.96
2022-11-27T05:03:05.416Z,0.94
2022-11-27T05:05:32.496Z,1.10
2022-11-27T05:07:59.621Z,1.00
2022-11-27T05:10:26.656Z,1.06
2022-11-27T05:12:53.835Z,1.17
2022-11-27T05:15:21.071Z,1.20
2022-11-27T05:17:48.798Z,1.23
2022-11-27T05:20:16.621Z,1.16
2022-11-27T05:22:45.296Z,1.24
2022-11-27T05:25:14.577Z,1.29
2022-11-27T05:27:41.907Z,1.29
2022-11-27T05:30:09.099Z,1.31
2022-11-27T05:32:36.629Z,1.29
2022-11-27T05:35:05.062Z,1.42
2022-11-27T05:37:35.207Z,1.52
2022-11-27T05:40:02.926Z,1.52
2022-11-27T05:42:40.074Z,1.40
2022-11-27T05:45:08.471Z,1.45
2022-11-27T05:47:35.456Z,1.57
2022-11-27T05:50:02.908Z,1.59
2022-11-27T05:52:30.245Z,1.75
2022-11-27T05:55:00.203Z,1.80
2022-11-27T05:57:28.336Z,1.82
2022-11-27T05:59:55.965Z,1.64
2022-11-27T06:02:29.033Z,1.57
2022-11-27T06:04:58.727Z,1.57
2022-11-27T06:07:26.210Z,1.70
2022-11-27T06:09:53.957Z,1.80
2022-11-27T06:12:21.121Z,1.88
2022-11-27T06:14:48.313Z,1.84
2022-11-27T06:17:17.032Z,1.96
2022-11-27T06:19:44.449Z,1.89
2022-11-27T06:22:11.612Z,1.97
2022-11-27T06:24:39.094Z,2.09
2022-11-27T06:27:06.938Z,2.18
2022-11-27T06:29:38.271Z,2.21
2022-11-27T06:32:07.045Z,2.13
2022-11-27T06:34:37.391Z,2.10
2022-11-27T06:37:08.082Z,2.13
2022-11-27T06:39:39.444Z,2.29
2022-11-27T06:42:09.707Z,2.45
2022-11-27T06:44:37.597Z,2.42
2022-11-27T06:47:05.293Z,2.15
2022-11-27T06:49:32.778Z,2.25
2022-11-27T06:52:06.661Z,2.25
2022-11-27T06:54:37.464Z,2.27
2022-11-27T06:57:05.229Z,2.37
2022-11-27T06:59:32.788Z,2.62
2022-11-27T07:02:03.645Z,2.67
2022-11-27T07:04:30.970Z,2.79
2022-11-27T07:06:58.875Z,2.88
2022-11-27T07:09:26.838Z,2.92
2022-11-27T07:11:53.892Z,2.85
2022-11-27T07:14:23.831Z,2.92
2022-11-27T07:16:51.204Z,3.00
2022-11-27T07:19:18.296Z,3.09
2022-11-27T07:21:45.562Z,3.19
2022-11-27T07:24:13.421Z,3.18
2022-11-27T07:26:43.782Z,3.34
2022-11-27T07:29:11.575Z,3.39
2022-11-27T07:31:41.043Z,3.33
2022-11-27T07:34:16.016Z,3.39
2022-11-27T07:36:47.157Z,3.53
2022-11-27T07:39:14.374Z,3.62
2022-11-27T07:41:42.173Z,3.66
2022-11-27T07:44:09.817Z,3.63
2022-11-27T07:46:37.565Z,3.81
2022-11-27T07:49:04.896Z,3.91
2022-11-27T07:51:32.809Z,4.02
2022-11-27T07:54:00.135Z,4.10
2022-11-27T07:56:28.196Z,4.11
2022-11-27T07:58:58.091Z,4.25
2022-11-27T08:01:25.693Z,4.26
2022-11-27T08:03:55.546Z,4.40
2022-11-27T08:06:25.696Z,4.47
2022-11-27T08:08:56.897Z,4.50
2022-11-27T08:11:29.996Z,4.69
2022-11-27T08:13:59.286Z,4.71
2022-11-27T08:16:31.122Z,4.77
2022-11-27T08:18:58.353Z,4.90
2022-11-27T08:21:26.416Z,4.84
2022-11-27T08:23:53.822Z,4.92
2022-11-27T08:26:21.634Z,5.06
2022-11-27T08:28:48.847Z,5.09
2022-11-27T08:31:16.100Z,5.25
2022-11-27T08:33:43.914Z,5.35
2022-11-27T08:36:16.266Z,5.43
2022-11-27T08:38:46.442Z,5.49
2022-11-27T08:41:14.273Z,5.56
2022-11-27T08:43:44.129Z,5.60
2022-11-27T08:46:12.257Z,5.78
2022-11-27T08:48:39.715Z,5.76
2022-11-27T08:51:10.191Z,5.92
2022-11-27T08:53:38.273Z,6.05
2022-11-27T08:56:27.000Z,6.16
2022-11-27T08:58:54.768Z,6.21
2022-11-27T09:01:25.427Z,6.30
2022-11-27T09:04:00.231Z,6.36
2022-11-27T09:06:32.350Z,6.47
2022-11-27T09:09:03.935Z,6.62
2022-11-27T09:11:32.139Z,6.69
2022-11-27T09:14:04.007Z,6.75
2022-11-27T09:16:34.217Z,6.67
2022-11-27T09:19:02.207Z,6.74
2022-11-27T09:21:30.925Z,6.79
2022-11-27T09:24:02.356Z,6.72
2022-11-27T09:26:30.390Z,6.94
2022-11-27T09:28:58.861Z,6.98
2022-11-27T09:31:26.864Z,6.92
2022-11-27T09:33:57.993Z,6.86
2022-11-27T09:36:26.181Z,6.90
2022-11-27T09:38:56.959Z,7.04
2022-11-27T09:41:49.207Z,7.02
2022-11-27T09:44:21.829Z,7.05
2022-11-27T09:46:54.438Z,7.05
2022-11-27T09:49:41.041Z,7.05
2022-11-27T09:52:25.058Z,7.00
2022-11-27T09:55:01.975Z,7.07
2022-11-27T09:57:39.305Z,7.03
2022-11-27T10:00:19.317Z,7.14
2022-11-27T10:02:46.552Z,7.26
2022-11-27T10:05:22.925Z,7.39
2022-11-27T10:08:06.734Z,7.47
2022-11-27T10:10:40.821Z,7.53
2022-11-27T10:13:21.184Z,7.53
2022-11-27T10:15:56.966Z,7.72
2022-11-27T10:18:29.373Z,7.68
2022-11-27T10:21:08.828Z,7.52
2022-11-27T10:23:35.830Z,7.73
2022-11-27T10:26:12.625Z,7.84
2022-11-27T10:29:01.967Z,7.90
2022-11-27T10:31:59.666Z,7.96
2022-11-27T10:34:44.247Z,8.06
2022-11-27T10:37:33.800Z,8.02
2022-11-27T10:40:08.549Z,8.07
2022-11-27T10:43:14.550Z,8.12
2022-11-27T10:46:05.721Z,8.13
2022-11-27T10:48:33.928Z,8.12
2022-11-27T10:51:01.797Z,8.12
2022-11-27T10:53:40.928Z,8.15
2022-11-27T10:56:08.281Z,8.25
2022-11-27T10:58:49.429Z,8.36
2022-11-27T11:01:22.244Z,8.40
2022-11-27T11:03:49.354Z,8.37
2022-11-27T11:06:22.929Z,8.62
2022-11-27T11:09:26.153Z,8.66
2022-11-27T11:11:53.420Z,8.59
2022-11-27T11:14:24.897Z,8.50
2022-11-27T11:16:52.635Z,8.40
2022-11-27T11:19:33.543Z,8.39
2022-11-27T11:22:09.125Z,8.33
2022-11-27T11:24:45.872Z,8.39
2022-11-27T11:27:16.772Z,8.39
2022-11-27T11:29:49.099Z,8.44
2022-11-27T11:32:22.705Z,8.48
2022-11-27T11:35:01.104Z,8.45
2022-11-27T11:37:46.189Z,8.59
2022-11-27T11:40:16.071Z,8.45
2022-11-27T11:42:59.499Z,8.56
2022-11-27T11:45:33.171Z,8.60
2022-11-27T11:48:22.959Z,8.50
2022-11-27T11:50:55.080Z,8.55
2022-11-27T11:53:38.355Z,8.48
2022-11-27T11:56:24.044Z,8.42
2022-11-27T11:59:14.512Z,8.18
2022-11-27T12:02:16.658Z,8.09
2022-11-27T12:05:27.612Z,8.11
2022-11-27T12:08:19.793Z,8.15
2022-11-27T12:11:03.015Z,8.09
2022-11-27T12:13:36.214Z,8.20
2022-11-27T12:16:22.237Z,8.21
2022-11-27T12:19:11.209Z,8.19
2022-11-27T12:22:07.496Z,8.20
2022-11-27T12:25:06.565Z,8.22
2022-11-27T12:27:48.712Z,8.14
2022-11-27T12:30:19.840Z,8.09
2022-11-27T12:33:28.228Z,8.24
2022-11-27T12:36:01.995Z,8.24
2022-11-27T12:38:51.294Z,8.25
2022-11-27T12:41:51.496Z,8.28
2022-11-27T12:44:36.498Z,8.31
2022-11-27T12:47:19.459Z,8.27
2022-11-27T12:49:56.014Z,8.29
2022-11-27T12:52:46.674Z,8.32
2022-11-27T12:55:26.421Z,8.25
2022-11-27T12:58:07.609Z,8.23
2022-11-27T13:00:41.260Z,8.16
2022-11-27T13:03:12.364Z,8.07
2022-11-27T13:05:45.346Z,8.13
2022-11-27T13:08:30.826Z,8.20
2022-11-27T13:11:04.442Z,8.15
2022-11-27T13:13:41.035Z,7.99
2022-11-27T13:16:15.668Z,8.12
2022-11-27T13:18:54.997Z,8.09
2022-11-27T13:21:27.311Z,8.07
2022-11-27T13:24:01.375Z,7.99
2022-11-27T13:26:52.611Z,7.97
2022-11-27T13:29:42.932Z,8.14
2022-11-27T13:32:24.864Z,7.96
2022-11-27T13:34:53.182Z,8.12
2022-11-27T13:37:39.299Z,8.03
2022-11-27T13:40:25.941Z,7.96
2022-11-27T13:42:56.088Z,7.91
2022-11-27T13:45:27.757Z,7.97
2022-11-27T13:47:58.419Z,7.89
2022-11-27T13:50:31.336Z,7.84
2022-11-27T13:53:09.118Z,7.91
2022-11-27T13:55:40.090Z,7.81
2022-11-27T13:58:08.267Z,7.68
2022-11-27T14:00:42.342Z,7.67
2022-11-27T14:03:26.157Z,7.51
2022-11-27T14:05:54.334Z,7.46
2022-11-27T14:08:33.866Z,7.42
2022-11-27T14:11:05.955Z,7.32
2022-11-27T14:13:51.845Z,7.32
2022-11-27T14:16:46.388Z,7.28
2022-11-27T14:19:33.347Z,7.22
2022-11-27T14:22:02.424Z,7.14
2022-11-27T14:24:31.424Z,7.18
2022-11-27T14:26:58.597Z,7.13
2022-11-27T14:29:30.846Z,6.98
2022-11-27T14:32:00.826Z,7.00
2022-11-27T14:34:31.891Z,6.89
2022-11-27T14:36:59.793Z,6.91
2022-11-27T14:39:36.071Z,6.80
2022-11-27T14:42:08.247Z,6.76
2022-11-27T14:44:35.306Z,6.85
2022-11-27T14:47:08.451Z,6.80
2022-11-27T14:49:35.816Z,6.82
2022-11-27T14:52:13.536Z,6.75
2022-11-27T14:54:41.449Z,6.71
2022-11-27T14:57:15.936Z,6.36
2022-11-27T14:59:46.697Z,6.72
2022-11-27T15:02:16.162Z,6.69
2022-11-27T15:04:45.118Z,6.69
2022-11-27T15:07:27.598Z,6.67
2022-11-27T15:09:56.605Z,6.69
2022-11-27T15:12:37.917Z,6.64
2022-11-27T15:15:18.863Z,6.54
2022-11-27T15:18:24.800Z,6.62
2022-11-27T15:21:32.501Z,6.58
2022-11-27T15:24:40.243Z,6.37
2022-11-27T15:27:19.469Z,6.62
2022-11-27T15:30:02.442Z,6.43
2022-11-27T15:32:47.551Z,6.53
2022-11-27T15:35:22.516Z,6.52
2022-11-27T15:37:53.217Z,6.49
2022-11-27T15:40:33.847Z,6.52
2022-11-27T15:43:02.664Z,6.48
2022-11-27T15:45:34.306Z,6.44
2022-11-27T15:48:07.365Z,6.40
2022-11-27T15:50:36.439Z,6.37
2022-11-27T15:53:07.033Z,6.44
2022-11-27T15:55:36.011Z,6.35
2022-11-27T15:58:04.894Z,6.42
2022-11-27T16:00:34.208Z,6.37
2022-11-27T16:03:03.236Z,6.34
2022-11-27T16:05:32.185Z,6.41
2022-11-27T16:08:04.367Z,6.37
2022-11-27T16:10:33.689Z,6.35
2022-11-27T16:13:32.778Z,6.38
2022-11-27T16:16:54.686Z,6.36
2022-11-27T16:19:34.350Z,6.17
2022-11-27T16:22:03.286Z,6.37
2022-11-27T16:24:32.190Z,6.35
2022-11-27T16:27:01.014Z,6.33
2022-11-27T16:29:30.092Z,6.31
2022-11-27T16:31:59.151Z,6.20
2022-11-27T16:34:30.168Z,6.22
2022-11-27T16:36:59.146Z,6.20
2022-11-27T16:42:42.216Z,6.13
2022-11-27T16:49:21.787Z,6.06
2022-11-27T16:52:07.949Z,6.06
2022-11-27T16:54:43.488Z,6.06
2022-11-27T16:57:13.215Z,6.05
2022-11-27T16:59:45.806Z,6.09
2022-11-27T17:02:14.963Z,5.99
2022-11-27T17:04:44.726Z,6.04
2022-11-27T17:07:13.767Z,6.10
2022-11-27T17:09:44.198Z,6.16
2022-11-27T17:12:13.180Z,6.16
2022-11-27T17:14:44.410Z,6.09
2022-11-27T17:17:15.391Z,6.08
2022-11-27T17:19:51.023Z,6.10
2022-11-27T17:22:24.150Z,6.14
2022-11-27T17:25:35.834Z,6.12
2022-11-27T17:28:14.306Z,6.06
2022-11-27T17:30:44.104Z,6.07
2022-11-27T17:33:12.707Z,6.07
2022-11-27T17:35:42.840Z,6.08
2022-11-27T17:38:15.310Z,6.05
2022-11-27T17:40:54.754Z,5.97
2022-11-27T17:43:24.110Z,5.98
2022-11-27T17:45:53.178Z,5.93
2022-11-27T17:48:25.678Z,5.88
2022-11-27T17:51:14.823Z,5.92
2022-11-27T17:53:51.979Z,5.88
2022-11-27T17:56:36.022Z,5.90
2022-11-27T17:59:41.174Z,5.82
2022-11-27T18:02:13.241Z,5.83
2022-11-27T18:04:43.477Z,5.94
2022-11-27T18:07:13.308Z,5.97
2022-11-27T18:09:46.203Z,5.96
2022-11-27T18:12:15.570Z,5.89
2022-11-27T18:14:44.554Z,5.89
2022-11-27T18:17:16.717Z,5.85
2022-11-27T18:19:46.084Z,5.80
2022-11-27T18:22:16.405Z,5.85
2022-11-27T18:24:49.206Z,5.80
2022-11-27T18:27:19.709Z,5.81
2022-11-27T18:29:49.100Z,5.76
2022-11-27T18:32:20.513Z,5.74
2022-11-27T18:34:59.238Z,5.73
2022-11-27T18:37:30.218Z,5.67
2022-11-27T18:39:58.099Z,5.64
2022-11-27T18:42:27.616Z,5.60
2022-11-27T18:44:59.214Z,5.62
2022-11-27T18:47:28.597Z,5.52
2022-11-27T18:50:02.957Z,5.48
2022-11-27T18:52:45.685Z,5.51
2022-11-27T18:55:15.037Z,5.51
2022-11-27T18:57:44.571Z,5.46
2022-11-27T19:00:14.550Z,5.40
2022-11-27T19:02:43.756Z,5.40
2022-11-27T19:05:12.897Z,5.44
2022-11-27T19:07:42.286Z,5.42
2022-11-27T19:10:15.566Z,5.44
2022-11-27T19:12:47.117Z,5.44
2022-11-27T19:15:26.025Z,5.41
2022-11-27T19:18:02.221Z,5.42
2022-11-27T19:20:31.533Z,5.41
2022-11-27T19:23:07.477Z,5.43
2022-11-27T19:25:44.227Z,5.42
2022-11-27T19:28:14.362Z,5.36
2022-11-27T19:30:46.532Z,5.43
2022-11-27T19:33:15.884Z,5.41
2022-11-27T19:35:44.936Z,5.40
2022-11-27T19:38:14.006Z,5.40
2022-11-27T19:40:43.138Z,5.41
2022-11-27T19:43:12.092Z,5.40
2022-11-27T19:45:41.409Z,5.37
2022-11-27T19:48:12.803Z,5.37
2022-11-27T19:50:46.792Z,5.36
2022-11-27T19:53:26.652Z,5.30
2022-11-27T19:55:59.336Z,5.25
2022-11-27T19:58:28.552Z,5.21
2022-11-27T20:01:11.662Z,5.22
2022-11-27T20:03:41.436Z,5.23
2022-11-27T20:06:15.861Z,5.19
2022-11-27T20:08:48.030Z,5.17
2022-11-27T20:11:20.135Z,5.13
2022-11-27T20:13:53.736Z,5.16
2022-11-27T20:16:24.687Z,5.10
2022-11-27T20:18:56.403Z,5.13
2022-11-27T20:21:27.644Z,5.15
2022-11-27T20:23:58.937Z,5.17
2022-11-27T20:26:41.244Z,5.15
2022-11-27T20:29:15.631Z,5.10
2022-11-27T20:31:46.500Z,5.05
2022-11-27T20:34:31.321Z,5.11
2022-11-27T20:37:00.258Z,5.12
2022-11-27T20:39:30.539Z,5.14
2022-11-27T20:42:12.703Z,5.14
2022-11-27T20:44:42.388Z,5.08
2022-11-27T20:47:12.204Z,5.12
2022-11-27T20:50:17.718Z,5.20
2022-11-27T20:53:15.524Z,5.24
2022-11-27T20:55:45.882Z,5.15
2022-11-27T20:58:17.185Z,5.18
2022-11-27T21:00:53.236Z,5.16
2022-11-27T21:03:22.599Z,5.13
2022-11-27T21:05:52.672Z,5.05
2022-11-27T21:08:21.382Z,5.12
2022-11-27T21:10:51.945Z,4.99
2022-11-27T21:13:20.298Z,5.03
2022-11-27T21:15:49.561Z,5.01
2022-11-27T21:18:19.261Z,5.00
2022-11-27T21:20:47.650Z,5.01
2022-11-27T21:23:18.363Z,4.95
2022-11-27T21:25:46.763Z,5.03
2022-11-27T21:28:16.697Z,5.02
2022-11-27T21:30:46.156Z,5.01
2022-11-27T21:33:14.502Z,5.00
2022-11-27T21:35:42.441Z,5.03
2022-11-27T21:38:10.493Z,5.00
2022-11-27T21:40:39.142Z,5.00
2022-11-27T21:43:07.266Z,5.03
2022-11-27T21:45:38.348Z,5.03
2022-11-27T21:48:09.947Z,5.03
2022-11-27T21:50:40.539Z,5.03
2022-11-27T21:53:08.283Z,5.06
2022-11-27T21:55:40.724Z,5.13
2022-11-27T21:58:08.852Z,5.10
2022-11-27T22:00:37.413Z,5.13
2022-11-27T22:03:04.972Z,5.10
2022-11-27T22:05:33.161Z,5.12
2022-11-27T22:08:00.836Z,5.10
2022-11-27T22:10:28.281Z,5.11
2022-11-27T22:12:59.851Z,5.10
2022-11-27T22:15:27.543Z,5.10
2022-11-27T22:17:54.670Z,5.11
2022-11-27T22:20:21.826Z,5.16
2022-11-27T22:22:48.905Z,5.16
2022-11-27T22:25:19.082Z,5.21
2022-11-27T22:28:08.577Z,5.24
2022-11-27T22:30:36.672Z,5.22
2022-11-27T22:33:04.158Z,5.29
2022-11-27T22:35:31.377Z,5.33
2022-11-27T22:37:58.643Z,5.34
2022-11-27T22:40:26.425Z,5.32
2022-11-27T22:42:53.427Z,5.31
2022-11-27T22:45:20.517Z,5.32
2022-11-27T22:47:47.647Z,5.34
2022-11-27T22:50:14.846Z,5.38
2022-11-27T22:52:41.909Z,5.39
2022-11-27T22:55:09.446Z,5.43
2022-11-27T22:57:37.496Z,5.46
2022-11-27T23:00:07.761Z,5.45
2022-11-27T23:02:38.102Z,5.47
2022-11-27T23:05:07.388Z,5.48
2022-11-27T23:07:35.010Z,5.45
2022-11-27T23:10:02.186Z,5.49
2022-11-27T23:12:29.187Z,5.48
2022-11-27T23:14:56.197Z,5.51
2022-11-27T23:17:23.208Z,5.57
2022-11-27T23:19:50.308Z,5.59
2022-11-27T23:22:17.407Z,5.57
2022-11-27T23:24:44.427Z,5.62
2022-11-27T23:27:11.466Z,5.65
2022-11-27T23:29:38.407Z,5.69
2022-11-27T23:32:05.432Z,5.66
2022-11-27T23:34:32.450Z,5.65
2022-11-27T23:36:59.417Z,5.72
2022-11-27T23:39:26.541Z,5.70
2022-11-27T23:41:53.543Z,5.71
2022-11-27T23:44:21.087Z,5.75
2022-11-27T23:46:48.468Z,5.73
2022-11-27T23:49:15.463Z,5.73
2022-11-27T23:51:42.386Z,5.74
2022-11-27T23:54:11.033Z,5.74
2022-11-27T23:56:39.165Z,5.72
2022-11-27T23:59:06.801Z,5.78
